createdAt,value
2023-03-10T00:01:13.765Z,23.20
2023-03-10T00:03:15.811Z,22.03
2023-03-10T00:05:19.750Z,21.40
2023-03-10T00:07:21.775Z,22.40
2023-03-10T00:09:25.098Z,22.80
2023-03-10T00:11:27.533Z,21.70
2023-03-10T00:13:29.605Z,24.90
2023-03-10T00:15:31.962Z,22.47
2023-03-10T00:17:34.464Z,21.60
2023-03-10T00:19:36.675Z,21.00
2023-03-10T00:21:38.701Z,22.00
2023-03-10T00:23:40.808Z,20.67
2023-03-10T00:25:42.763Z,19.47
2023-03-10T00:27:44.811Z,22.77
2023-03-10T00:29:46.785Z,21.07
2023-03-10T00:31:48.781Z,23.70
2023-03-10T00:33:52.237Z,20.40
2023-03-10T00:36:16.441Z,19.30
2023-03-10T00:38:18.402Z,20.23
2023-03-10T00:40:20.566Z,21.00
2023-03-10T00:42:22.926Z,20.70
2023-03-10T00:44:24.906Z,22.47
2023-03-10T00:46:28.176Z,21.10
2023-03-10T00:48:30.586Z,19.23
2023-03-10T00:50:32.580Z,20.73
2023-03-10T00:52:34.680Z,19.37
2023-03-10T00:54:40.081Z,20.30
2023-03-10T00:56:42.097Z,20.47
2023-03-10T00:58:45.693Z,19.33
2023-03-10T01:00:48.449Z,20.00
2023-03-10T01:02:52.845Z,20.33
2023-03-10T01:04:55.021Z,21.03
2023-03-10T01:07:15.949Z,21.87
2023-03-10T01:09:18.576Z,17.10
2023-03-10T01:11:23.165Z,20.90
2023-03-10T01:13:25.460Z,18.00
2023-03-10T01:15:27.706Z,20.90
2023-03-10T01:17:30.004Z,20.03
2023-03-10T01:19:32.204Z,20.33
2023-03-10T01:21:38.004Z,20.60
2023-03-10T01:23:40.127Z,20.90
2023-03-10T01:25:42.740Z,18.80
2023-03-10T01:27:44.809Z,21.83
2023-03-10T01:29:46.934Z,19.50
2023-03-10T01:31:48.973Z,20.60
2023-03-10T01:33:51.039Z,20.70
2023-03-10T01:35:53.264Z,22.13
2023-03-10T01:37:55.496Z,18.43
2023-03-10T01:39:57.592Z,19.53
2023-03-10T01:42:00.419Z,22.13
2023-03-10T01:44:04.930Z,19.73
2023-03-10T01:46:27.280Z,20.53
2023-03-10T01:48:33.552Z,21.40
2023-03-10T01:50:35.958Z,19.13
2023-03-10T01:52:38.117Z,20.20
2023-03-10T01:54:49.734Z,19.37
2023-03-10T01:56:54.071Z,18.60
2023-03-10T01:58:56.122Z,20.57
2023-03-10T02:00:58.202Z,21.80
2023-03-10T02:03:12.903Z,19.23
2023-03-10T02:05:15.887Z,19.47
2023-03-10T02:07:19.637Z,21.10
2023-03-10T02:09:21.660Z,19.40
2023-03-10T02:11:24.242Z,20.60
2023-03-10T02:13:26.349Z,19.00
2023-03-10T02:15:28.491Z,20.93
2023-03-10T02:17:31.416Z,20.07
2023-03-10T02:19:54.656Z,19.53
2023-03-10T02:22:04.911Z,19.77
2023-03-10T02:24:20.860Z,20.40
2023-03-10T02:26:34.009Z,19.70
2023-03-10T02:28:36.100Z,19.37
2023-03-10T02:30:41.500Z,18.10
2023-03-10T02:32:47.897Z,18.47
2023-03-10T02:34:49.890Z,17.83
2023-03-10T02:36:52.571Z,20.50
2023-03-10T02:38:54.569Z,18.17
2023-03-10T02:40:57.469Z,18.40
2023-03-10T02:43:30.766Z,17.80
2023-03-10T02:46:01.876Z,16.93
2023-03-10T02:48:04.664Z,16.37
2023-03-10T02:50:08.676Z,17.70
2023-03-10T02:52:21.674Z,15.70
2023-03-10T02:54:23.671Z,16.20
2023-03-10T02:56:26.172Z,15.57
2023-03-10T02:58:30.917Z,16.10
2023-03-10T03:00:37.403Z,14.30
2023-03-10T03:02:39.811Z,16.63
2023-03-10T03:04:41.906Z,14.73
2023-03-10T03:06:43.941Z,14.67
2023-03-10T03:08:46.285Z,13.90
2023-03-10T03:10:51.608Z,15.23
2023-03-10T03:12:56.172Z,16.10
2023-03-10T03:14:58.817Z,14.70
2023-03-10T03:17:01.204Z,14.70
2023-03-10T03:19:03.489Z,14.30
2023-03-10T03:21:11.688Z,15.10
2023-03-10T03:23:14.754Z,13.87
2023-03-10T03:25:19.155Z,14.20
2023-03-10T03:27:21.197Z,12.30
2023-03-10T03:29:24.005Z,12.97
2023-03-10T03:31:26.334Z,11.10
2023-03-10T03:33:37.909Z,11.30
2023-03-10T03:35:40.607Z,9.80
2023-03-10T03:37:43.595Z,9.90
2023-03-10T03:39:46.223Z,9.87
2023-03-10T03:41:49.199Z,12.17
2023-03-10T03:43:51.672Z,10.00
2023-03-10T03:45:53.745Z,9.67
2023-03-10T03:47:59.659Z,9.10
2023-03-10T03:50:03.171Z,9.03
2023-03-10T03:52:06.525Z,8.27
2023-03-10T03:54:08.704Z,7.60
2023-03-10T03:56:13.388Z,7.50
2023-03-10T03:58:18.873Z,7.37
2023-03-10T04:00:22.939Z,6.50
2023-03-10T04:02:31.409Z,6.60
2023-03-10T04:04:34.497Z,6.67
2023-03-10T04:06:36.622Z,6.50
2023-03-10T04:08:40.414Z,5.93
2023-03-10T04:10:42.626Z,5.20
2023-03-10T04:12:44.784Z,5.50
2023-03-10T04:14:46.955Z,4.67
2023-03-10T04:16:49.098Z,5.73
2023-03-10T04:18:51.224Z,5.13
2023-03-10T04:20:53.661Z,5.40
2023-03-10T04:22:56.239Z,5.40
2023-03-10T04:25:06.020Z,5.00
2023-03-10T04:27:11.442Z,5.57
2023-03-10T04:29:13.998Z,4.17
2023-03-10T04:31:19.162Z,4.87
2023-03-10T04:33:23.103Z,4.43
2023-03-10T04:35:25.817Z,5.40
2023-03-10T04:37:28.042Z,4.70
2023-03-10T04:39:30.837Z,5.13
2023-03-10T04:41:32.956Z,4.43
2023-03-10T04:43:35.294Z,4.37
2023-03-10T04:45:37.482Z,5.00
2023-03-10T04:47:40.137Z,5.23
2023-03-10T04:49:42.266Z,4.50
2023-03-10T04:51:47.212Z,4.47
2023-03-10T04:53:50.571Z,4.23
2023-03-10T04:55:52.910Z,4.67
2023-03-10T04:57:55.401Z,4.67
2023-03-10T04:59:57.503Z,5.00
2023-03-10T05:02:00.515Z,5.50
2023-03-10T05:04:04.612Z,4.67
2023-03-10T05:06:34.082Z,5.00
2023-03-10T05:09:00.972Z,4.77
2023-03-10T05:11:06.430Z,4.67
2023-03-10T05:13:12.349Z,4.30
2023-03-10T05:15:15.631Z,4.70
2023-03-10T05:17:17.809Z,4.30
2023-03-10T05:19:20.308Z,3.93
2023-03-10T05:21:22.764Z,4.83
2023-03-10T05:23:26.971Z,4.70
2023-03-10T05:25:29.134Z,4.03
2023-03-10T05:27:35.044Z,3.90
2023-03-10T05:29:39.139Z,4.50
2023-03-10T05:31:48.390Z,4.70
2023-03-10T05:33:56.948Z,3.93
2023-03-10T05:35:59.416Z,5.20
2023-03-10T05:38:01.823Z,4.20
2023-03-10T05:40:04.951Z,3.90
2023-03-10T05:42:07.219Z,3.97
2023-03-10T05:44:11.131Z,4.03
2023-03-10T05:46:14.673Z,3.97
2023-03-10T05:48:21.227Z,4.03
2023-03-10T05:50:23.323Z,3.90
2023-03-10T05:52:25.596Z,4.10
2023-03-10T05:54:27.795Z,3.50
2023-03-10T05:56:29.945Z,5.30
2023-03-10T05:58:35.453Z,4.30
2023-03-10T06:00:37.640Z,4.73
2023-03-10T06:02:39.992Z,4.13
2023-03-10T06:04:42.102Z,4.13
2023-03-10T06:06:44.217Z,3.70
2023-03-10T06:08:46.441Z,4.20
2023-03-10T06:10:48.452Z,3.23
2023-03-10T06:12:50.450Z,3.30
2023-03-10T06:14:52.474Z,3.70
2023-03-10T06:16:55.267Z,3.73
2023-03-10T06:18:57.560Z,3.30
2023-03-10T06:20:59.924Z,3.27
2023-03-10T06:23:01.891Z,3.60
2023-03-10T06:25:04.956Z,4.00
2023-03-10T06:27:06.996Z,3.70
2023-03-10T06:29:09.481Z,3.53
2023-03-10T06:31:17.857Z,3.80
2023-03-10T06:33:20.000Z,3.37
2023-03-10T06:35:22.021Z,2.97
2023-03-10T06:37:24.069Z,3.17
2023-03-10T06:39:29.033Z,3.10
2023-03-10T06:41:31.308Z,3.20
2023-03-10T06:43:34.339Z,2.90
2023-03-10T06:45:36.545Z,3.80
2023-03-10T06:47:38.725Z,3.07
2023-03-10T06:49:41.005Z,3.47
2023-03-10T06:51:43.162Z,3.60
2023-03-10T06:53:46.159Z,3.43
2023-03-10T06:56:06.115Z,2.97
2023-03-10T06:58:08.343Z,2.90
2023-03-10T07:00:12.423Z,2.70
2023-03-10T07:02:14.748Z,2.50
2023-03-10T07:04:17.061Z,2.53
2023-03-10T07:06:19.394Z,2.43
2023-03-10T07:08:21.857Z,2.73
2023-03-10T07:10:24.264Z,2.20
2023-03-10T07:12:26.803Z,2.40
2023-03-10T07:14:28.937Z,2.70
2023-03-10T07:16:31.170Z,2.10
2023-03-10T07:18:33.498Z,2.37
2023-03-10T07:20:36.299Z,2.43
2023-03-10T07:22:38.514Z,2.03
2023-03-10T07:24:40.704Z,2.40
2023-03-10T07:26:43.013Z,2.40
2023-03-10T07:28:45.514Z,2.10
2023-03-10T07:30:48.370Z,2.60
2023-03-10T07:32:53.275Z,2.37
2023-03-10T07:34:55.476Z,2.13
2023-03-10T07:36:57.752Z,3.03
2023-03-10T07:38:59.946Z,2.30
2023-03-10T07:41:06.891Z,2.20
2023-03-10T07:43:09.624Z,2.13
2023-03-10T07:45:12.306Z,1.90
2023-03-10T07:47:14.566Z,1.77
2023-03-10T07:49:16.898Z,1.90
2023-03-10T07:51:19.525Z,1.60
2023-03-10T07:53:21.726Z,1.97
2023-03-10T07:55:24.509Z,1.90
2023-03-10T07:57:28.377Z,1.60
2023-03-10T07:59:30.625Z,1.90
2023-03-10T08:01:32.819Z,1.60
2023-03-10T08:03:35.933Z,1.70
2023-03-10T08:05:41.933Z,2.00
2023-03-10T08:07:44.412Z,1.77
2023-03-10T08:09:50.998Z,1.60
2023-03-10T08:11:53.185Z,1.70
2023-03-10T08:13:55.486Z,1.67
2023-03-10T08:16:00.384Z,1.53
2023-03-10T08:18:05.254Z,1.60
2023-03-10T08:20:08.112Z,1.80
2023-03-10T08:22:10.432Z,1.73
2023-03-10T08:24:12.623Z,1.60
2023-03-10T08:26:16.915Z,1.10
2023-03-10T08:28:19.129Z,1.40
2023-03-10T08:30:21.469Z,1.50
2023-03-10T08:32:23.757Z,1.50
2023-03-10T08:34:26.004Z,1.60
2023-03-10T08:36:29.926Z,1.57
2023-03-10T08:38:32.594Z,1.60
2023-03-10T08:40:34.839Z,4.17
2023-03-10T08:42:37.174Z,1.40
2023-03-10T08:44:40.061Z,1.30
2023-03-10T08:46:46.294Z,2.47
2023-03-10T08:48:49.104Z,1.40
2023-03-10T08:50:51.416Z,4.70
2023-03-10T08:52:53.620Z,2.00
2023-03-10T08:54:57.103Z,1.80
2023-03-10T08:57:01.012Z,1.30
2023-03-10T08:59:03.684Z,1.63
2023-03-10T09:01:06.297Z,2.30
2023-03-10T09:03:11.668Z,3.10
2023-03-10T09:05:14.730Z,1.90
2023-03-10T09:07:17.627Z,2.03
2023-03-10T09:09:19.867Z,2.10
2023-03-10T09:11:28.434Z,3.10
2023-03-10T09:13:30.612Z,1.63
2023-03-10T09:15:34.758Z,1.97
2023-03-10T09:17:39.391Z,2.23
2023-03-10T09:19:42.779Z,1.70
2023-03-10T09:21:45.090Z,2.00
2023-03-10T09:23:49.104Z,1.67
2023-03-10T09:25:51.330Z,1.70
2023-03-10T09:27:53.677Z,1.73
2023-03-10T09:29:56.369Z,2.37
2023-03-10T09:31:59.648Z,2.00
2023-03-10T09:34:01.969Z,1.70
2023-03-10T09:36:06.928Z,3.10
2023-03-10T09:38:09.755Z,1.80
2023-03-10T09:40:21.085Z,2.00
2023-03-10T09:42:39.753Z,1.87
2023-03-10T09:44:58.921Z,2.27
2023-03-10T09:47:46.525Z,17.80
2023-03-10T09:50:03.796Z,2.93
2023-03-10T09:52:28.762Z,3.80
2023-03-10T09:55:00.058Z,5.40
2023-03-10T09:57:04.369Z,1.70
2023-03-10T09:59:19.204Z,1.97
2023-03-10T10:01:24.110Z,2.00
2023-03-10T10:03:50.130Z,2.00
2023-03-10T10:05:55.413Z,1.70
2023-03-10T10:07:58.053Z,1.93
2023-03-10T10:10:08.341Z,1.40
2023-03-10T10:12:15.154Z,1.50
2023-03-10T10:14:29.807Z,1.70
2023-03-10T10:16:47.243Z,1.73
2023-03-10T10:19:12.478Z,1.60
2023-03-10T10:21:50.230Z,1.33
2023-03-10T10:23:54.406Z,1.70
2023-03-10T10:26:02.746Z,2.07
2023-03-10T10:28:05.339Z,1.50
2023-03-10T10:30:29.424Z,1.63
2023-03-10T10:32:31.741Z,1.50
2023-03-10T10:34:35.021Z,1.90
2023-03-10T10:36:48.484Z,1.83
2023-03-10T10:38:52.405Z,1.37
2023-03-10T10:41:07.698Z,1.50
2023-03-10T10:43:16.986Z,1.40
2023-03-10T10:45:35.903Z,1.80
2023-03-10T10:47:47.778Z,1.47
2023-03-10T10:49:49.938Z,1.47
2023-03-10T10:52:19.575Z,1.37
2023-03-10T10:54:30.865Z,1.87
2023-03-10T10:56:33.059Z,1.97
2023-03-10T10:58:37.800Z,1.40
2023-03-10T11:00:40.205Z,2.03
2023-03-10T11:02:42.474Z,1.60
2023-03-10T11:04:46.403Z,1.53
2023-03-10T11:06:49.798Z,1.80
2023-03-10T11:08:52.334Z,1.57
2023-03-10T11:11:01.499Z,1.73
2023-03-10T11:13:22.908Z,1.53
2023-03-10T11:15:43.334Z,1.33
2023-03-10T11:17:55.002Z,1.60
2023-03-10T11:20:09.372Z,1.47
2023-03-10T11:22:20.626Z,1.17
2023-03-10T11:24:32.293Z,1.60
2023-03-10T11:26:44.780Z,1.67
2023-03-10T11:29:04.784Z,1.47
2023-03-10T11:31:10.172Z,1.27
2023-03-10T11:33:15.634Z,1.57
2023-03-10T11:35:45.591Z,1.50
2023-03-10T11:37:52.316Z,1.87
2023-03-10T11:40:19.977Z,1.20
2023-03-10T11:42:50.757Z,1.50
2023-03-10T11:45:18.861Z,1.87
2023-03-10T11:47:44.335Z,1.87
2023-03-10T11:49:47.472Z,1.60
2023-03-10T11:51:56.402Z,1.50
2023-03-10T11:54:00.715Z,1.60
2023-03-10T11:56:03.477Z,1.40
2023-03-10T11:58:05.932Z,1.57
2023-03-10T12:00:19.013Z,1.43
2023-03-10T12:02:28.382Z,1.50
2023-03-10T12:04:36.500Z,1.50
2023-03-10T12:06:46.184Z,1.40
2023-03-10T12:08:50.282Z,1.50
2023-03-10T12:10:53.080Z,1.47
2023-03-10T12:12:55.360Z,2.10
2023-03-10T12:15:00.649Z,1.53
2023-03-10T12:17:04.128Z,1.43
2023-03-10T12:19:06.512Z,1.57
2023-03-10T12:21:15.153Z,1.50
2023-03-10T12:23:26.907Z,1.53
2023-03-10T12:25:29.186Z,1.80
2023-03-10T12:27:31.365Z,1.30
2023-03-10T12:29:35.984Z,1.37
2023-03-10T12:31:38.238Z,1.47
2023-03-10T12:33:42.652Z,1.50
2023-03-10T12:35:50.813Z,1.80
2023-03-10T12:38:39.446Z,1.47
2023-03-10T12:40:51.223Z,2.07
2023-03-10T12:42:53.395Z,1.50
2023-03-10T12:45:21.334Z,1.60
2023-03-10T12:47:38.998Z,1.13
2023-03-10T12:49:41.090Z,1.70
2023-03-10T12:51:48.115Z,1.77
2023-03-10T12:53:58.982Z,1.73
2023-03-10T12:56:07.090Z,1.43
2023-03-10T12:58:23.764Z,1.40
2023-03-10T13:00:53.960Z,1.50
2023-03-10T13:02:56.261Z,2.03
2023-03-10T13:05:03.560Z,1.47
2023-03-10T13:07:16.199Z,1.60
2023-03-10T13:09:26.268Z,1.47
2023-03-10T13:11:54.955Z,1.20
2023-03-10T13:14:01.515Z,1.23
2023-03-10T13:16:06.401Z,1.50
2023-03-10T13:18:20.927Z,1.43
2023-03-10T13:20:23.480Z,1.30
2023-03-10T13:22:25.962Z,1.57
2023-03-10T13:24:36.645Z,1.67
2023-03-10T13:26:38.798Z,3.30
2023-03-10T13:28:51.974Z,1.80
2023-03-10T13:31:17.279Z,2.17
2023-03-10T13:33:25.735Z,1.70
2023-03-10T13:35:36.809Z,2.30
2023-03-10T13:37:39.209Z,2.93
2023-03-10T13:39:41.835Z,1.80
2023-03-10T13:41:46.804Z,1.80
2023-03-10T13:43:51.701Z,1.53
2023-03-10T13:45:55.766Z,1.40
2023-03-10T13:48:00.815Z,1.97
2023-03-10T13:50:03.157Z,1.80
2023-03-10T13:52:11.190Z,2.07
2023-03-10T13:54:28.165Z,2.40
2023-03-10T13:56:38.784Z,1.63
2023-03-10T13:58:41.001Z,2.13
2023-03-10T14:00:47.404Z,1.53
2023-03-10T14:02:51.519Z,1.63
2023-03-10T14:04:54.676Z,1.60
2023-03-10T14:07:19.139Z,2.53
2023-03-10T14:09:22.877Z,1.80
2023-03-10T14:11:42.149Z,3.13
2023-03-10T14:13:45.306Z,2.00
2023-03-10T14:15:55.338Z,1.80
2023-03-10T14:18:06.290Z,2.67
2023-03-10T14:20:10.448Z,1.97
2023-03-10T14:22:27.814Z,1.63
2023-03-10T14:24:29.995Z,1.93
2023-03-10T14:26:32.620Z,1.60
2023-03-10T14:28:34.804Z,1.50
2023-03-10T14:30:38.870Z,1.50
2023-03-10T14:32:41.160Z,1.20
2023-03-10T14:34:43.499Z,2.10
2023-03-10T14:36:45.715Z,1.80
2023-03-10T14:38:47.970Z,1.57
2023-03-10T14:40:52.283Z,1.40
2023-03-10T14:42:58.648Z,1.40
2023-03-10T14:45:06.111Z,1.50
2023-03-10T14:47:09.515Z,1.27
2023-03-10T14:49:15.372Z,1.10
2023-03-10T14:51:32.567Z,1.30
2023-03-10T14:53:37.018Z,1.10
2023-03-10T14:55:39.944Z,1.17
2023-03-10T14:57:44.493Z,1.10
2023-03-10T14:59:46.808Z,1.30
2023-03-10T15:01:49.126Z,1.20
2023-03-10T15:03:51.643Z,1.57
2023-03-10T15:05:53.975Z,1.40
2023-03-10T15:07:56.230Z,1.20
2023-03-10T15:10:10.533Z,1.67
2023-03-10T15:12:17.856Z,1.40
2023-03-10T15:14:20.185Z,1.20
2023-03-10T15:16:22.456Z,1.30
2023-03-10T15:18:27.098Z,1.10
2023-03-10T15:20:29.352Z,1.50
2023-03-10T15:22:32.015Z,1.40
2023-03-10T15:24:34.244Z,1.23
2023-03-10T15:26:36.457Z,1.77
2023-03-10T15:28:39.748Z,1.60
2023-03-10T15:30:42.265Z,1.50
2023-03-10T15:32:44.529Z,1.83
2023-03-10T15:34:46.874Z,1.87
2023-03-10T15:36:49.229Z,2.20
2023-03-10T15:38:52.889Z,2.40
2023-03-10T15:40:56.898Z,3.10
2023-03-10T15:43:00.011Z,2.70
2023-03-10T15:45:04.943Z,2.80
2023-03-10T15:47:07.290Z,3.40
2023-03-10T15:49:09.430Z,5.70
2023-03-10T15:51:17.402Z,5.00
2023-03-10T15:53:19.551Z,4.70
2023-03-10T15:55:22.209Z,5.50
2023-03-10T15:57:24.394Z,5.67
2023-03-10T15:59:27.912Z,5.30
2023-03-10T16:01:30.369Z,4.23
2023-03-10T16:03:35.747Z,5.60
2023-03-10T16:05:39.060Z,5.63
2023-03-10T16:07:41.375Z,5.07
2023-03-10T16:09:43.571Z,6.97
2023-03-10T16:11:45.801Z,7.83
2023-03-10T16:13:49.722Z,6.70
2023-03-10T16:15:52.818Z,6.10
2023-03-10T16:17:55.024Z,5.67
2023-03-10T16:20:00.282Z,5.77
2023-03-10T16:22:02.558Z,6.67
2023-03-10T16:24:04.862Z,5.97
2023-03-10T16:26:13.747Z,4.90
2023-03-10T16:28:15.918Z,4.30
2023-03-10T16:30:19.062Z,4.10
2023-03-10T16:32:21.422Z,4.50
2023-03-10T16:34:23.669Z,4.60
2023-03-10T16:36:28.168Z,5.00
2023-03-10T16:38:30.471Z,6.60
2023-03-10T16:40:32.705Z,7.50
2023-03-10T16:42:36.761Z,6.90
2023-03-10T16:44:38.910Z,5.70
2023-03-10T16:46:41.354Z,4.80
2023-03-10T16:48:45.105Z,5.13
2023-03-10T16:50:47.898Z,7.60
2023-03-10T16:52:55.099Z,7.83
2023-03-10T16:54:58.503Z,9.20
2023-03-10T16:57:01.573Z,7.63
2023-03-10T16:59:04.768Z,5.03
2023-03-10T17:01:07.004Z,4.20
2023-03-10T17:03:09.319Z,5.13
2023-03-10T17:05:14.449Z,3.90
2023-03-10T17:07:19.273Z,3.53
2023-03-10T17:09:21.649Z,4.37
2023-03-10T17:11:29.486Z,4.13
2023-03-10T17:13:32.067Z,3.20
2023-03-10T17:15:34.363Z,3.30
2023-03-10T17:17:36.585Z,3.33
2023-03-10T17:19:38.786Z,3.20
2023-03-10T17:21:45.769Z,3.73
2023-03-10T17:23:48.785Z,3.40
2023-03-10T17:25:51.913Z,2.80
2023-03-10T17:27:54.126Z,2.83
2023-03-10T17:29:56.837Z,3.00
2023-03-10T17:31:59.290Z,2.57
2023-03-10T17:34:05.839Z,3.93
2023-03-10T17:36:10.941Z,3.97
2023-03-10T17:38:13.087Z,6.63
2023-03-10T17:40:17.240Z,5.00
2023-03-10T17:42:19.517Z,4.37
2023-03-10T17:44:21.784Z,5.13
2023-03-10T17:46:26.381Z,6.90
2023-03-10T17:48:29.300Z,13.63
2023-03-10T17:50:31.445Z,10.90
2023-03-10T17:52:33.720Z,10.30
2023-03-10T17:54:35.897Z,6.27
2023-03-10T17:56:38.813Z,6.20
2023-03-10T17:58:41.116Z,6.63
2023-03-10T18:00:43.540Z,6.43
2023-03-10T18:02:45.869Z,10.07
2023-03-10T18:04:48.737Z,9.97
2023-03-10T18:06:50.984Z,9.50
2023-03-10T18:08:56.081Z,7.27
2023-03-10T18:11:00.326Z,10.20
2023-03-10T18:13:03.379Z,10.00
2023-03-10T18:15:06.031Z,9.93
2023-03-10T18:17:08.230Z,12.80
2023-03-10T18:19:11.269Z,13.20
2023-03-10T18:21:14.253Z,12.77
2023-03-10T18:23:17.478Z,7.77
2023-03-10T18:25:20.339Z,7.07
2023-03-10T18:27:22.607Z,5.20
2023-03-10T18:29:24.823Z,8.90
2023-03-10T18:31:29.239Z,11.00
2023-03-10T18:33:31.449Z,11.50
2023-03-10T18:35:36.766Z,11.27
2023-03-10T18:37:39.016Z,12.53
2023-03-10T18:39:41.451Z,11.87
2023-03-10T18:41:43.842Z,12.47
2023-03-10T18:43:46.414Z,12.57
2023-03-10T18:45:48.580Z,13.70
2023-03-10T18:47:50.868Z,12.37
2023-03-10T18:49:53.121Z,11.80
2023-03-10T18:51:55.361Z,12.17
2023-03-10T18:53:57.652Z,12.00
2023-03-10T18:55:59.970Z,11.70
2023-03-10T18:58:02.249Z,12.97
2023-03-10T19:00:14.260Z,14.80
2023-03-10T19:02:16.478Z,12.23
2023-03-10T19:04:18.724Z,12.40
2023-03-10T19:06:20.868Z,12.43
2023-03-10T19:08:23.077Z,13.53
2023-03-10T19:10:25.309Z,12.30
2023-03-10T19:12:28.573Z,12.63
2023-03-10T19:14:30.814Z,14.00
2023-03-10T19:16:35.586Z,13.67
2023-03-10T19:18:37.899Z,12.80
2023-03-10T19:20:40.110Z,12.20
2023-03-10T19:22:42.622Z,12.97
2023-03-10T19:24:44.819Z,12.70
2023-03-10T19:26:47.971Z,13.30
2023-03-10T19:28:50.261Z,14.43
2023-03-10T19:30:52.471Z,13.30
2023-03-10T19:32:54.791Z,14.07
2023-03-10T19:34:57.008Z,12.40
2023-03-10T19:36:59.220Z,12.90
2023-03-10T19:39:01.451Z,13.70
2023-03-10T19:41:05.181Z,13.70
2023-03-10T19:43:07.521Z,14.30
2023-03-10T19:45:14.948Z,14.00
2023-03-10T19:47:18.413Z,15.80
2023-03-10T19:49:21.872Z,15.70
2023-03-10T19:51:27.594Z,15.13
2023-03-10T19:53:30.294Z,14.07
2023-03-10T19:55:32.539Z,13.47
2023-03-10T19:57:35.978Z,13.90
2023-03-10T19:59:38.198Z,17.70
2023-03-10T20:01:42.179Z,16.13
2023-03-10T20:03:44.643Z,16.07
2023-03-10T20:05:49.584Z,15.87
2023-03-10T20:07:51.747Z,14.63
2023-03-10T20:09:53.915Z,14.67
2023-03-10T20:11:57.068Z,15.37
2023-03-10T20:13:59.223Z,14.57
2023-03-10T20:16:01.602Z,14.10
2023-03-10T20:18:04.668Z,16.27
2023-03-10T20:20:10.735Z,20.20
2023-03-10T20:22:15.245Z,16.83
2023-03-10T20:24:18.083Z,14.60
2023-03-10T20:26:20.322Z,14.43
2023-03-10T20:28:22.533Z,15.00
2023-03-10T20:30:30.762Z,15.53
2023-03-10T20:32:33.748Z,15.17
2023-03-10T20:34:36.177Z,16.60
2023-03-10T20:36:39.975Z,11.47
2023-03-10T20:38:44.259Z,11.37
2023-03-10T20:40:46.649Z,11.00
2023-03-10T20:42:52.770Z,11.70
2023-03-10T20:44:55.005Z,8.83
2023-03-10T20:46:57.263Z,8.40
2023-03-10T20:48:59.447Z,8.27
2023-03-10T20:51:03.470Z,7.83
2023-03-10T20:53:05.688Z,8.03
2023-03-10T20:55:08.836Z,7.50
2023-03-10T20:57:11.097Z,6.90
2023-03-10T20:59:13.264Z,7.17
2023-03-10T21:01:18.643Z,4.90
2023-03-10T21:03:22.007Z,4.37
2023-03-10T21:05:25.716Z,4.37
2023-03-10T21:07:27.846Z,3.30
2023-03-10T21:09:29.903Z,2.87
2023-03-10T21:11:34.092Z,2.90
2023-03-10T21:13:36.079Z,2.93
2023-03-10T21:15:39.343Z,3.33
2023-03-10T21:17:41.656Z,3.00
2023-03-10T21:19:43.697Z,3.40
2023-03-10T21:21:45.767Z,2.60
2023-03-10T21:23:47.983Z,3.10
2023-03-10T21:25:50.088Z,3.47
2023-03-10T21:27:55.788Z,3.10
2023-03-10T21:29:59.168Z,2.30
2023-03-10T21:32:01.215Z,2.83
2023-03-10T21:34:04.420Z,3.30
2023-03-10T21:36:07.042Z,3.00
2023-03-10T21:38:10.930Z,2.63
2023-03-10T21:40:15.121Z,2.50
2023-03-10T21:42:17.178Z,2.27
2023-03-10T21:44:19.230Z,2.23
2023-03-10T21:46:21.566Z,2.23
2023-03-10T21:48:23.716Z,2.63
2023-03-10T21:50:25.802Z,2.60
2023-03-10T21:52:27.873Z,2.97
2023-03-10T21:54:30.055Z,2.53
2023-03-10T21:56:32.217Z,3.00
2023-03-10T21:58:35.197Z,2.70
2023-03-10T22:00:37.982Z,3.83
2023-03-10T22:02:40.339Z,5.17
2023-03-10T22:04:42.517Z,5.80
2023-03-10T22:06:44.619Z,7.03
2023-03-10T22:08:46.627Z,7.70
2023-03-10T22:10:48.838Z,9.10
2023-03-10T22:12:50.972Z,8.90
2023-03-10T22:14:56.365Z,9.37
2023-03-10T22:16:58.580Z,9.53
2023-03-10T22:19:00.677Z,9.97
2023-03-10T22:21:02.805Z,8.57
2023-03-10T22:23:05.059Z,9.70
2023-03-10T22:25:07.402Z,9.93
2023-03-10T22:27:10.081Z,8.80
2023-03-10T22:29:12.084Z,9.73
2023-03-10T22:31:14.247Z,9.27
2023-03-10T22:33:16.621Z,9.80
2023-03-10T22:35:18.827Z,9.60
2023-03-10T22:37:20.859Z,10.33
2023-03-10T22:39:23.862Z,9.43
2023-03-10T22:41:27.939Z,9.17
2023-03-10T22:43:30.047Z,10.43
2023-03-10T22:45:32.816Z,10.03
2023-03-10T22:47:34.871Z,10.17
2023-03-10T22:49:36.885Z,10.10
2023-03-10T22:51:39.200Z,9.37
2023-03-10T22:53:41.353Z,10.63
2023-03-10T22:55:43.789Z,9.10
2023-03-10T22:57:45.933Z,10.10
2023-03-10T22:59:47.962Z,10.23
2023-03-10T23:01:50.116Z,8.80
2023-03-10T23:03:52.104Z,9.20
2023-03-10T23:05:54.129Z,9.33
2023-03-10T23:07:56.488Z,8.23
2023-03-10T23:09:58.528Z,5.37
2023-03-10T23:12:00.565Z,4.53
2023-03-10T23:14:03.852Z,4.30
2023-03-10T23:16:07.201Z,3.63
2023-03-10T23:18:09.603Z,3.50
2023-03-10T23:20:14.046Z,2.80
2023-03-10T23:22:16.025Z,3.30
2023-03-10T23:24:18.082Z,3.27
2023-03-10T23:26:20.163Z,2.73
2023-03-10T23:28:22.198Z,3.53
2023-03-10T23:30:25.202Z,3.70
2023-03-10T23:32:27.413Z,2.70
2023-03-10T23:34:29.612Z,3.10
2023-03-10T23:36:32.334Z,3.60
2023-03-10T23:38:35.948Z,3.63
2023-03-10T23:40:38.281Z,3.63
2023-03-10T23:42:41.383Z,3.53
2023-03-10T23:44:43.433Z,3.73
2023-03-10T23:46:45.435Z,4.10
2023-03-10T23:48:49.056Z,3.63
2023-03-10T23:50:51.153Z,4.07
2023-03-10T23:52:53.441Z,4.43
2023-03-10T23:54:55.485Z,5.20
2023-03-10T23:56:57.528Z,4.00
2023-03-10T23:58:59.573Z,3.67
